Time;durP1;ratioP1;P1;durP2;ratioP2;P2;SDS_P1;SDS_P2;PMS_P1;PMS_P2;Temp;Humidity;BMP_temperature;BMP_pressure;BME280_temperature;BME280_humidity;BME280_pressure;Samples;Min_cycle;Max_cycle;Signal;HPM_P1;HPM_P2
2022/03/29 00:01:37;;;;;;;32.83;17.40;;;6.80;99.90;;;;;;5152320;27;20026;-45
2022/03/29 00:04:03;;;;;;;32.30;17.38;;;6.80;99.90;;;;;;5151104;27;20383;-45
2022/03/29 00:06:28;;;;;;;29.48;16.70;;;6.80;99.90;;;;;;5152600;27;20464;-49
2022/03/29 00:08:55;;;;;;;30.10;17.90;;;6.80;99.90;;;;;;5147846;27;20472;-46
2022/03/29 00:11:21;;;;;;;32.35;19.10;;;6.80;99.90;;;;;;5140814;27;20475;-45
2022/03/29 00:13:46;;;;;;;29.05;18.13;;;6.80;99.90;;;;;;5152428;27;20019;-45
2022/03/29 00:16:12;;;;;;;28.48;16.88;;;6.80;99.90;;;;;;5152165;27;20109;-46
2022/03/29 00:18:37;;;;;;;31.02;18.50;;;6.90;99.90;;;;;;5151051;27;20408;-40
2022/03/29 00:21:03;;;;;;;29.80;16.98;;;6.80;99.90;;;;;;5137743;27;20047;-40
2022/03/29 00:23:28;;;;;;;32.80;19.48;;;6.90;99.90;;;;;;5139665;27;20049;-40
2022/03/29 00:25:54;;;;;;;33.00;18.20;;;6.90;99.90;;;;;;5151286;27;20083;-40
2022/03/29 00:28:19;;;;;;;29.48;19.08;;;6.90;99.90;;;;;;5151394;27;20125;-40
2022/03/29 00:30:45;;;;;;;34.15;18.95;;;6.80;99.90;;;;;;5143963;27;20037;-40
2022/03/29 00:33:10;;;;;;;29.80;18.23;;;6.80;99.90;;;;;;5135292;27;20023;-40
2022/03/29 00:35:36;;;;;;;29.80;18.10;;;6.80;99.90;;;;;;5150728;27;20027;-40
2022/03/29 00:38:01;;;;;;;29.38;18.80;;;6.80;99.90;;;;;;5144845;27;20117;-39
2022/03/29 00:40:27;;;;;;;30.67;18.40;;;6.80;99.90;;;;;;5141596;27;20027;-40
2022/03/29 00:42:52;;;;;;;33.75;18.45;;;6.80;99.90;;;;;;5151248;27;20018;-40
2022/03/29 00:45:18;;;;;;;37.30;20.10;;;6.80;99.90;;;;;;5151061;27;20022;-40
2022/03/29 00:47:44;;;;;;;33.95;19.40;;;6.80;99.90;;;;;;5151031;27;20092;-40
2022/03/29 00:50:10;;;;;;;35.58;18.48;;;6.70;99.90;;;;;;5136325;27;20132;-40
2022/03/29 00:52:37;;;;;;;29.40;17.83;;;6.80;99.90;;;;;;5140873;27;20512;-40
2022/03/29 00:55:03;;;;;;;32.78;18.75;;;6.80;99.90;;;;;;5150482;27;20506;-40
2022/03/29 00:57:29;;;;;;;32.05;18.23;;;6.80;99.90;;;;;;5151096;27;20018;-39
2022/03/29 00:59:56;;;;;;;32.85;19.13;;;6.80;99.90;;;;;;5149845;27;20039;-40
2022/03/29 01:02:21;;;;;;;36.35;18.92;;;6.80;99.90;;;;;;5149029;27;20098;-40
2022/03/29 01:04:47;;;;;;;35.47;20.35;;;6.80;99.90;;;;;;5150472;27;20582;-40
2022/03/29 01:07:13;;;;;;;32.60;19.10;;;6.80;99.90;;;;;;5149564;27;20379;-40
2022/03/29 01:09:39;;;;;;;37.10;19.92;;;6.80;99.90;;;;;;5150072;27;20097;-40
2022/03/29 01:12:05;;;;;;;36.90;21.10;;;6.90;99.90;;;;;;5151527;27;20404;-40
2022/03/29 01:14:32;;;;;;;42.63;21.13;;;6.90;99.90;;;;;;5150802;27;20372;-40
2022/03/29 01:19:43;;;;;;;35.42;20.33;;;6.90;99.90;;;;;;5144891;27;20448;-39
2022/03/29 01:22:10;;;;;;;35.63;19.52;;;6.80;99.90;;;;;;5133786;27;20050;-39
2022/03/29 01:24:37;;;;;;;37.28;21.33;;;6.80;99.90;;;;;;5139966;27;20573;-39
2022/03/29 01:27:05;;;;;;;36.65;19.48;;;6.70;99.90;;;;;;5141857;27;20126;-39
2022/03/29 01:29:33;;;;;;;35.15;20.13;;;6.80;99.90;;;;;;5149737;27;20018;-39
2022/03/29 01:32:02;;;;;;;35.25;20.83;;;6.80;99.90;;;;;;5150386;27;20038;-39
2022/03/29 01:34:28;;;;;;;37.30;20.13;;;6.80;99.90;;;;;;5150469;27;20122;-39
2022/03/29 01:36:54;;;;;;;37.65;20.67;;;6.80;99.90;;;;;;5149222;27;20540;-39
2022/03/29 01:39:20;;;;;;;41.92;21.33;;;6.80;99.90;;;;;;5138974;27;20141;-39
2022/03/29 01:41:46;;;;;;;34.67;21.60;;;6.80;99.90;;;;;;5135512;27;20028;-39
2022/03/29 01:44:12;;;;;;;39.22;21.88;;;6.80;99.90;;;;;;5114346;27;20250;-40
2022/03/29 01:46:38;;;;;;;37.75;22.10;;;6.80;99.90;;;;;;5127326;27;20056;-39
2022/03/29 01:49:04;;;;;;;36.05;21.15;;;6.80;99.90;;;;;;5144271;27;20034;-40
2022/03/29 01:51:30;;;;;;;43.63;23.25;;;6.80;99.90;;;;;;5150135;27;20535;-39
2022/03/29 01:53:59;;;;;;;45.67;23.55;;;6.70;99.90;;;;;;5150427;27;20440;-39
2022/03/29 01:56:32;;;;;;;38.08;22.02;;;6.70;99.90;;;;;;5150247;27;20063;-39
2022/03/29 01:58:58;;;;;;;40.08;21.83;;;6.70;99.90;;;;;;5149436;27;20558;-40
2022/03/29 02:01:24;;;;;;;35.85;21.38;;;6.70;99.90;;;;;;5150027;27;20054;-39
2022/03/29 02:03:50;;;;;;;41.30;22.88;;;6.70;99.90;;;;;;5135182;27;20054;-39
2022/03/29 02:06:15;;;;;;;37.65;22.65;;;6.70;99.90;;;;;;5117952;27;20149;-39
2022/03/29 02:08:41;;;;;;;38.10;22.00;;;6.70;99.90;;;;;;5120348;27;20015;-40
2022/03/29 02:11:07;;;;;;;41.83;22.98;;;6.70;99.90;;;;;;5137032;27;20523;-40
2022/03/29 02:13:33;;;;;;;43.67;24.25;;;6.70;99.90;;;;;;5152880;27;20097;-39
2022/03/29 02:15:59;;;;;;;42.28;22.60;;;6.70;99.90;;;;;;5154323;27;20033;-39
2022/03/29 02:18:24;;;;;;;40.10;23.08;;;6.70;99.90;;;;;;5154155;27;20437;-39
2022/03/29 02:20:50;;;;;;;40.50;23.42;;;6.70;99.90;;;;;;5153411;27;20086;-39
2022/03/29 02:23:15;;;;;;;42.03;23.00;;;6.70;99.90;;;;;;5152838;27;20110;-39
2022/03/29 02:25:42;;;;;;;40.70;22.30;;;6.70;99.90;;;;;;5142367;27;20022;-40
2022/03/29 02:28:08;;;;;;;39.63;22.55;;;6.70;99.90;;;;;;5149128;27;20459;-40
2022/03/29 02:30:35;;;;;;;36.13;22.08;;;6.70;99.90;;;;;;5137374;27;20042;-39
2022/03/29 02:33:05;;;;;;;45.55;23.45;;;6.70;99.90;;;;;;5145207;27;20044;-40
2022/03/29 02:35:30;;;;;;;39.53;22.33;;;6.80;99.90;;;;;;5151407;27;20959;-39
2022/03/29 02:37:56;;;;;;;40.10;22.75;;;6.70;99.90;;;;;;5144954;27;20034;-40
2022/03/29 02:40:22;;;;;;;41.45;23.35;;;6.70;99.90;;;;;;5153059;27;20018;-40
2022/03/29 02:42:51;;;;;;;35.28;20.77;;;6.70;99.90;;;;;;5153396;27;20026;-39
2022/03/29 02:45:22;;;;;;;41.08;21.70;;;6.70;99.90;;;;;;5153552;27;20093;-39
2022/03/29 02:47:54;;;;;;;40.65;22.52;;;6.70;99.90;;;;;;5153378;27;20023;-40
2022/03/29 02:50:21;;;;;;;39.90;22.85;;;6.80;99.90;;;;;;5152834;27;20074;-40
2022/03/29 02:52:50;;;;;;;41.72;22.45;;;6.80;99.90;;;;;;5136025;27;20070;-40
2022/03/29 02:55:18;;;;;;;35.40;21.67;;;6.80;99.90;;;;;;5149534;27;20030;-39
2022/03/29 02:57:44;;;;;;;43.63;22.50;;;6.80;99.90;;;;;;5153229;27;20031;-39
2022/03/29 03:00:15;;;;;;;41.38;24.80;;;6.80;99.90;;;;;;5150317;27;20071;-40
2022/03/29 03:02:41;;;;;;;38.55;22.70;;;6.80;99.90;;;;;;5152173;27;20027;-39
2022/03/29 03:05:08;;;;;;;49.05;23.75;;;6.80;99.90;;;;;;5152033;27;20022;-39
2022/03/29 03:07:34;;;;;;;42.60;22.98;;;6.80;99.90;;;;;;5151822;27;20079;-40
2022/03/29 03:09:59;;;;;;;39.00;22.38;;;6.80;99.90;;;;;;5149632;27;20333;-39
2022/03/29 03:12:25;;;;;;;38.50;23.95;;;6.80;99.90;;;;;;5143320;27;20019;-39
2022/03/29 03:14:50;;;;;;;35.40;22.30;;;6.90;99.90;;;;;;5151786;27;20031;-39
2022/03/29 03:17:16;;;;;;;38.85;22.95;;;6.90;99.90;;;;;;5151845;27;20029;-39
2022/03/29 03:19:41;;;;;;;38.47;22.30;;;6.90;99.90;;;;;;5151309;27;20026;-39
2022/03/29 03:22:06;;;;;;;39.25;22.38;;;6.80;99.90;;;;;;5140713;27;20031;-40
2022/03/29 03:24:32;;;;;;;40.88;22.10;;;6.80;99.90;;;;;;5151144;27;20487;-39
2022/03/29 03:26:57;;;;;;;39.60;23.75;;;6.80;99.90;;;;;;5151991;27;20072;-40
2022/03/29 03:29:23;;;;;;;44.08;20.95;;;6.80;99.90;;;;;;5151283;27;20550;-39
2022/03/29 03:31:49;;;;;;;50.75;22.65;;;6.80;99.90;;;;;;5140808;27;20033;-40
2022/03/29 03:34:14;;;;;;;36.75;21.90;;;6.80;99.90;;;;;;5142853;27;20443;-40
2022/03/29 03:36:40;;;;;;;40.47;22.48;;;6.80;99.90;;;;;;5151725;27;20109;-40
2022/03/29 03:39:05;;;;;;;42.70;22.15;;;6.80;99.90;;;;;;5151200;27;20019;-39
2022/03/29 03:41:32;;;;;;;37.83;21.05;;;6.80;99.90;;;;;;5131168;27;20026;-39
2022/03/29 03:43:57;;;;;;;40.60;21.83;;;6.80;99.90;;;;;;5145282;27;20091;-40
2022/03/29 03:46:23;;;;;;;39.72;21.13;;;6.80;99.90;;;;;;5151252;27;20042;-40
2022/03/29 03:48:49;;;;;;;37.70;21.52;;;6.80;99.90;;;;;;5150765;27;20018;-40
2022/03/29 03:51:14;;;;;;;37.70;21.27;;;6.70;99.90;;;;;;5144447;27;20026;-40
2022/03/29 03:53:40;;;;;;;37.80;22.70;;;6.80;99.90;;;;;;5142317;27;20488;-40
2022/03/29 03:56:05;;;;;;;42.05;22.27;;;6.70;99.90;;;;;;5151346;27;20030;-40
2022/03/29 03:58:31;;;;;;;38.03;20.25;;;6.70;99.90;;;;;;5151253;27;20094;-40
2022/03/29 04:00:56;;;;;;;38.40;21.85;;;6.70;99.90;;;;;;5109774;27;1174954;-39
2022/03/29 04:03:22;;;;;;;43.65;21.25;;;6.70;99.90;;;;;;5152113;27;20019;-39
2022/03/29 04:05:48;;;;;;;44.90;22.45;;;6.70;99.90;;;;;;5152080;27;20019;-40
2022/03/29 04:08:13;;;;;;;41.45;22.95;;;6.70;99.90;;;;;;5151673;27;20100;-40
2022/03/29 04:10:40;;;;;;;39.15;21.63;;;6.60;99.90;;;;;;5137289;27;20069;-40
2022/03/29 04:13:06;;;;;;;36.78;21.50;;;6.70;99.90;;;;;;5147089;27;20113;-39
2022/03/29 04:15:32;;;;;;;41.35;21.98;;;6.70;99.90;;;;;;5138823;27;20012;-40
2022/03/29 04:18:00;;;;;;;40.50;21.45;;;6.70;99.90;;;;;;5143265;27;20027;-40
2022/03/29 04:20:26;;;;;;;41.42;21.60;;;6.60;99.90;;;;;;5151294;27;20022;-41
2022/03/29 04:22:51;;;;;;;42.28;21.52;;;6.60;99.90;;;;;;5151991;27;20184;-40
2022/03/29 04:25:17;;;;;;;38.47;20.77;;;6.60;99.90;;;;;;5151843;27;20539;-40
2022/03/29 04:27:42;;;;;;;41.17;22.25;;;6.60;99.90;;;;;;5151870;27;20106;-40
2022/03/29 04:30:09;;;;;;;35.75;21.95;;;6.60;99.90;;;;;;5139287;27;20055;-39
2022/03/29 04:32:36;;;;;;;45.28;22.73;;;6.60;99.90;;;;;;5140519;27;20742;-40
2022/03/29 04:35:02;;;;;;;44.03;22.60;;;6.60;99.90;;;;;;5133584;27;20030;-40
2022/03/29 04:37:28;;;;;;;44.75;24.10;;;6.70;99.90;;;;;;5149534;27;20472;-39
2022/03/29 04:39:53;;;;;;;41.40;22.10;;;6.60;99.90;;;;;;5150631;27;20023;-40
2022/03/29 04:42:19;;;;;;;42.85;22.20;;;6.70;99.90;;;;;;5151401;27;20015;-39
2022/03/29 04:44:45;;;;;;;41.20;21.50;;;6.70;99.90;;;;;;5151200;27;20071;-40
2022/03/29 04:47:10;;;;;;;41.00;22.20;;;6.70;99.90;;;;;;5151289;27;20098;-40
2022/03/29 04:49:36;;;;;;;43.40;22.67;;;6.70;99.90;;;;;;5150368;27;20485;-40
2022/03/29 04:52:02;;;;;;;51.13;23.88;;;6.60;99.90;;;;;;5142631;27;20025;-40
2022/03/29 04:54:28;;;;;;;45.72;23.88;;;6.60;99.90;;;;;;5121291;27;20527;-40
2022/03/29 04:56:54;;;;;;;41.38;23.67;;;6.70;99.90;;;;;;5119593;27;20096;-39
2022/03/29 04:59:20;;;;;;;41.85;24.35;;;6.70;99.90;;;;;;5119011;27;20039;-39
2022/03/29 05:01:45;;;;;;;46.67;22.73;;;6.70;99.90;;;;;;5131647;27;20023;-40
2022/03/29 05:04:11;;;;;;;47.83;22.40;;;6.60;99.90;;;;;;5130994;27;20023;-39
2022/03/29 05:06:36;;;;;;;49.75;24.70;;;6.60;99.90;;;;;;5131022;27;20023;-40
2022/03/29 05:09:02;;;;;;;44.63;23.85;;;6.60;99.90;;;;;;5129983;27;20026;-40
2022/03/29 05:11:28;;;;;;;48.45;23.63;;;6.60;99.90;;;;;;5130295;27;20023;-40
2022/03/29 05:13:53;;;;;;;50.05;24.35;;;6.70;99.90;;;;;;5130995;27;20029;-45
2022/03/29 05:16:19;;;;;;;48.60;26.00;;;6.70;99.90;;;;;;5129933;27;20020;-40
2022/03/29 05:18:45;;;;;;;44.42;23.30;;;6.70;99.90;;;;;;5137008;27;20102;-40
2022/03/29 05:21:12;;;;;;;48.10;24.75;;;6.70;99.90;;;;;;5123444;27;20739;-40
2022/03/29 05:23:37;;;;;;;47.53;23.70;;;6.70;99.90;;;;;;5136820;27;20475;-40
2022/03/29 05:26:03;;;;;;;42.72;22.30;;;6.70;99.90;;;;;;5131917;27;20027;-40
2022/03/29 05:28:28;;;;;;;44.05;24.33;;;6.80;99.90;;;;;;5130787;27;20753;-40
2022/03/29 05:30:54;;;;;;;42.25;22.77;;;6.70;99.90;;;;;;5129190;27;20031;-40
2022/03/29 05:33:19;;;;;;;45.15;23.52;;;6.70;99.90;;;;;;5129217;27;20035;-40
2022/03/29 05:35:45;;;;;;;46.00;24.30;;;6.70;99.90;;;;;;5114356;27;20038;-40
2022/03/29 05:38:11;;;;;;;51.15;23.50;;;6.80;99.90;;;;;;5134168;27;20092;-40
2022/03/29 05:40:37;;;;;;;42.83;23.95;;;6.80;99.90;;;;;;5137293;27;20484;-40
2022/03/29 05:43:02;;;;;;;45.00;22.88;;;6.80;99.90;;;;;;5115886;27;20053;-40
2022/03/29 05:45:30;;;;;;;49.53;24.35;;;6.80;99.90;;;;;;5110891;27;20019;-40
2022/03/29 05:50:40;;;;;;;41.13;22.30;;;6.80;99.90;;;;;;5110728;27;20085;-40
2022/03/29 05:53:06;;;;;;;44.40;24.40;;;6.80;99.90;;;;;;5119150;27;20042;-41
2022/03/29 05:55:31;;;;;;;49.05;25.63;;;6.80;99.90;;;;;;5132147;27;20410;-40
2022/03/29 05:57:57;;;;;;;48.50;25.85;;;6.80;99.90;;;;;;5113294;28;20440;-41
2022/03/29 06:00:24;;;;;;;50.55;25.35;;;6.90;99.90;;;;;;5119331;28;20066;-41
2022/03/29 06:02:50;;;;;;;42.33;24.25;;;6.90;99.90;;;;;;5130771;27;20019;-40
2022/03/29 06:05:16;;;;;;;51.92;26.30;;;6.90;99.90;;;;;;5113793;27;20024;-41
2022/03/29 06:07:41;;;;;;;48.47;24.92;;;6.90;99.90;;;;;;5117130;27;20495;-41
2022/03/29 06:10:08;;;;;;;47.28;25.65;;;6.90;99.90;;;;;;5142071;27;20169;-40
2022/03/29 06:12:36;;;;;;;47.47;25.38;;;7.00;99.90;;;;;;5122982;27;20077;-40
2022/03/29 06:15:03;;;;;;;47.60;26.15;;;7.00;99.90;;;;;;5110012;28;20431;-40
2022/03/29 06:17:29;;;;;;;46.58;25.55;;;6.90;99.90;;;;;;5110356;28;20024;-40
2022/03/29 06:19:55;;;;;;;47.90;25.88;;;6.90;99.90;;;;;;5115695;28;20038;-40
2022/03/29 06:22:20;;;;;;;50.45;25.98;;;7.00;99.90;;;;;;5134330;27;20030;-40
2022/03/29 06:24:46;;;;;;;50.28;25.45;;;7.00;99.90;;;;;;5140665;27;20447;-47
2022/03/29 06:27:11;;;;;;;46.40;25.33;;;7.00;99.90;;;;;;5133458;27;20070;-50
2022/03/29 06:29:37;;;;;;;49.38;26.20;;;7.00;99.90;;;;;;5141997;27;20023;-40
2022/03/29 06:32:03;;;;;;;51.15;26.65;;;7.10;99.90;;;;;;5128776;27;20042;-40
2022/03/29 06:34:29;;;;;;;56.55;26.95;;;7.00;99.90;;;;;;5129588;27;20019;-40
2022/03/29 06:36:56;;;;;;;51.03;27.63;;;7.00;99.90;;;;;;5123293;27;20019;-49
2022/03/29 06:39:21;;;;;;;55.92;26.98;;;7.10;99.90;;;;;;5135595;27;20034;-50
2022/03/29 06:41:47;;;;;;;49.20;26.77;;;7.10;99.90;;;;;;5135962;27;20038;-48
2022/03/29 06:44:13;;;;;;;52.00;25.77;;;7.10;99.90;;;;;;5130621;27;20399;-49
2022/03/29 06:46:39;;;;;;;51.50;26.25;;;7.10;99.90;;;;;;5130167;28;20035;-50
2022/03/29 06:49:06;;;;;;;48.90;25.27;;;7.10;99.90;;;;;;5129968;27;20012;-48
2022/03/29 06:51:32;;;;;;;56.28;26.10;;;7.10;99.90;;;;;;5129445;27;20019;-50
2022/03/29 06:53:57;;;;;;;53.25;26.48;;;7.10;99.90;;;;;;5132687;27;20052;-48
2022/03/29 06:56:26;;;;;;;51.88;26.20;;;7.10;99.90;;;;;;5133847;27;20027;-47
2022/03/29 06:58:52;;;;;;;50.78;27.00;;;7.20;99.90;;;;;;5147333;27;20026;-47
2022/03/29 07:01:17;;;;;;;52.55;26.25;;;7.20;99.90;;;;;;5120946;27;20077;-48
2022/03/29 07:03:43;;;;;;;52.15;28.05;;;7.20;99.90;;;;;;5136453;27;20496;-49
2022/03/29 07:06:08;;;;;;;59.85;26.40;;;7.20;99.90;;;;;;5150272;27;20015;-47
2022/03/29 07:08:34;;;;;;;53.75;26.05;;;7.20;99.90;;;;;;5142772;27;20034;-51
2022/03/29 07:11:21;;;;;;;54.20;26.83;;;7.20;99.90;;;;;;5139955;27;20031;-48
2022/03/29 07:13:46;;;;;;;51.90;25.70;;;7.20;99.90;;;;;;5132303;27;20399;-46
2022/03/29 07:16:14;;;;;;;53.78;26.52;;;7.20;99.90;;;;;;5123057;27;20024;-51
2022/03/29 07:18:40;;;;;;;65.45;26.15;;;7.20;99.90;;;;;;5123858;27;20034;-47
2022/03/29 07:21:06;;;;;;;53.30;25.60;;;7.20;99.90;;;;;;5121331;27;20027;-47
2022/03/29 07:23:31;;;;;;;49.50;27.45;;;7.20;99.90;;;;;;5127194;27;20019;-46
2022/03/29 07:25:57;;;;;;;52.67;25.33;;;7.20;99.90;;;;;;5128090;27;20071;-46
2022/03/29 07:28:24;;;;;;;50.92;26.30;;;7.20;99.90;;;;;;5128638;27;20107;-47
2022/03/29 07:30:51;;;;;;;56.33;26.48;;;7.20;99.90;;;;;;5120158;27;20030;-46
2022/03/29 07:33:17;;;;;;;64.18;27.33;;;7.20;99.90;;;;;;5124417;27;20065;-47
2022/03/29 07:35:44;;;;;;;57.17;26.67;;;7.20;99.90;;;;;;5129127;27;20499;-47
2022/03/29 07:38:10;;;;;;;56.45;27.33;;;7.20;99.90;;;;;;5125188;27;20043;-47
2022/03/29 07:40:37;;;;;;;47.70;23.95;;;7.20;99.90;;;;;;5125376;27;20080;-48
2022/03/29 07:43:04;;;;;;;50.60;24.35;;;7.20;99.90;;;;;;5118196;27;20026;-48
2022/03/29 07:45:30;;;;;;;46.83;24.70;;;7.20;99.90;;;;;;5117745;27;20563;-47
2022/03/29 07:47:56;;;;;;;49.55;23.98;;;7.20;99.90;;;;;;5074871;28;20024;-47
2022/03/29 07:50:24;;;;;;;56.28;25.45;;;7.30;99.90;;;;;;5111159;27;20071;-47
2022/03/29 07:52:50;;;;;;;51.33;25.17;;;7.40;99.90;;;;;;5134399;27;20055;-47
2022/03/29 07:55:16;;;;;;;46.95;24.75;;;7.40;99.90;;;;;;5123663;27;20106;-48
2022/03/29 07:57:42;;;;;;;52.47;24.48;;;7.30;99.90;;;;;;5115394;27;20106;-39
2022/03/29 08:02:54;;;;;;;53.72;26.13;;;7.40;99.90;;;;;;5136024;27;20371;-39
2022/03/29 08:05:20;;;;;;;48.78;25.88;;;7.50;99.90;;;;;;5142143;27;20387;-38
2022/03/29 08:07:46;;;;;;;62.58;27.77;;;7.60;99.90;;;;;;5150777;27;20019;-38
2022/03/29 08:10:13;;;;;;;44.88;25.00;;;7.50;99.90;;;;;;5151472;27;20046;-38
2022/03/29 08:12:40;;;;;;;54.13;25.75;;;7.60;99.90;;;;;;5125976;27;20015;-38
2022/03/29 08:15:07;;;;;;;48.83;23.17;;;7.70;99.90;;;;;;5133619;27;20027;-39
2022/03/29 08:17:33;;;;;;;51.90;23.23;;;7.80;99.90;;;;;;5131547;27;20380;-38
2022/03/29 08:19:59;;;;;;;48.15;24.40;;;7.80;99.90;;;;;;5129601;27;20264;-39
2022/03/29 08:22:25;;;;;;;50.80;24.73;;;7.90;99.90;;;;;;5138510;27;20023;-38
2022/03/29 08:24:50;;;;;;;41.35;21.80;;;8.00;99.90;;;;;;5151616;27;20460;-38
2022/03/29 08:27:16;;;;;;;48.83;24.02;;;8.00;99.90;;;;;;5135541;27;20019;-38
2022/03/29 08:29:42;;;;;;;49.20;23.77;;;8.00;99.90;;;;;;5144066;27;20054;-39
2022/03/29 08:32:07;;;;;;;51.10;24.23;;;8.10;99.90;;;;;;5135301;27;20034;-39
2022/03/29 08:34:33;;;;;;;42.58;22.73;;;8.20;99.90;;;;;;5131445;27;20497;-38
2022/03/29 08:36:59;;;;;;;41.55;21.70;;;8.20;99.90;;;;;;5116022;27;20607;-38
2022/03/29 08:39:24;;;;;;;42.72;22.45;;;8.40;99.90;;;;;;5135243;27;20031;-38
2022/03/29 08:41:59;;;;;;;50.22;21.67;;;8.50;99.90;;;;;;5109072;28;20047;-38
2022/03/29 08:44:26;;;;;;;47.75;21.63;;;8.50;99.90;;;;;;5136558;27;20506;-38
2022/03/29 08:46:52;;;;;;;41.72;22.40;;;8.60;99.90;;;;;;5144898;27;20033;-38
2022/03/29 08:49:19;;;;;;;42.75;23.38;;;8.80;99.90;;;;;;5133239;27;20027;-39
2022/03/29 08:51:45;;;;;;;40.42;21.35;;;8.90;99.90;;;;;;5136392;27;20029;-38
2022/03/29 08:54:10;;;;;;;42.33;23.17;;;8.90;99.90;;;;;;5131656;27;20098;-38
2022/03/29 08:56:36;;;;;;;45.20;22.15;;;9.00;99.90;;;;;;5128485;27;20369;-38
2022/03/29 08:59:01;;;;;;;48.90;24.10;;;9.10;99.90;;;;;;5142922;27;20029;-39
2022/03/29 09:01:27;;;;;;;46.28;24.95;;;9.20;99.90;;;;;;5139980;27;20444;-38
2022/03/29 09:04:13;;;;;;;45.55;23.83;;;9.20;99.90;;;;;;5137080;27;20022;-39
2022/03/29 09:06:51;;;;;;;46.13;23.55;;;9.20;99.90;;;;;;5131353;27;20467;-38
2022/03/29 09:09:24;;;;;;;44.72;24.38;;;9.40;99.90;;;;;;5125192;27;20027;-39
2022/03/29 09:11:51;;;;;;;41.00;22.23;;;9.50;99.90;;;;;;5129000;27;20015;-39
2022/03/29 09:14:18;;;;;;;44.58;22.13;;;9.70;99.90;;;;;;5129766;27;20035;-43
2022/03/29 09:16:44;;;;;;;52.95;24.48;;;9.90;99.90;;;;;;5125182;27;20412;-39
2022/03/29 09:19:11;;;;;;;47.65;24.00;;;9.90;99.90;;;;;;5136320;27;20142;-46
2022/03/29 09:21:43;;;;;;;47.33;22.92;;;10.00;99.90;;;;;;5136702;27;20015;-46
2022/03/29 09:24:12;;;;;;;46.47;23.23;;;10.20;99.90;;;;;;5141586;27;20015;-47
2022/03/29 09:26:39;;;;;;;46.55;23.52;;;10.30;99.90;;;;;;5142671;27;20376;-47
2022/03/29 09:29:20;;;;;;;49.03;24.50;;;10.30;99.90;;;;;;5144809;27;20025;-47
2022/03/29 09:31:47;;;;;;;48.10;23.17;;;10.30;99.90;;;;;;5131116;27;20086;-47
2022/03/29 09:34:18;;;;;;;45.78;23.58;;;10.60;99.90;;;;;;5141652;27;20031;-47
2022/03/29 09:36:52;;;;;;;40.65;22.48;;;10.70;99.90;;;;;;5150584;27;20027;-48
2022/03/29 09:39:31;;;;;;;46.92;23.63;;;11.10;99.90;;;;;;5148495;27;20050;-47
2022/03/29 09:41:59;;;;;;;45.90;23.00;;;11.20;99.90;;;;;;5128498;27;20033;-39
2022/03/29 09:44:35;;;;;;;45.25;23.85;;;11.40;98.60;;;;;;5131721;27;20027;-38
2022/03/29 09:47:04;;;;;;;38.83;23.15;;;11.40;98.60;;;;;;5134677;27;20102;-39
2022/03/29 09:49:47;;;;;;;43.03;23.15;;;11.50;98.80;;;;;;5134746;27;20023;-39
2022/03/29 09:52:17;;;;;;;45.05;24.38;;;11.40;98.20;;;;;;5123628;27;20107;-39
2022/03/29 09:55:07;;;;;;;42.17;23.05;;;11.50;98.50;;;;;;5129765;27;20376;-39
2022/03/29 09:57:47;;;;;;;39.70;23.50;;;11.70;98.00;;;;;;5129238;27;20027;-39
2022/03/29 10:00:34;;;;;;;48.42;23.50;;;11.60;97.60;;;;;;5113239;27;20035;-39
2022/03/29 10:03:02;;;;;;;49.75;26.00;;;11.60;97.40;;;;;;5109022;28;20101;-47
2022/03/29 10:05:30;;;;;;;43.97;24.58;;;11.60;97.10;;;;;;5108710;28;20106;-49
2022/03/29 10:10:46;;;;;;;40.33;22.98;;;12.90;94.90;;;;;;5109490;28;20058;-37
2022/03/29 10:13:13;;;;;;;43.50;24.33;;;13.30;93.50;;;;;;5122878;27;20412;-37
2022/03/29 10:15:41;;;;;;;44.05;24.10;;;13.50;93.00;;;;;;5128472;27;20023;-46
2022/03/29 10:18:07;;;;;;;50.75;26.02;;;13.20;93.10;;;;;;5143885;27;20391;-47
2022/03/29 10:20:36;;;;;;;41.47;24.88;;;13.10;93.30;;;;;;5141236;27;20027;-39
2022/03/29 10:23:03;;;;;;;47.28;26.20;;;13.00;92.90;;;;;;5129921;27;20055;-37
2022/03/29 10:25:29;;;;;;;42.63;23.73;;;13.60;92.70;;;;;;5148006;27;20026;-37
2022/03/29 10:27:56;;;;;;;35.60;22.50;;;14.30;91.60;;;;;;5139572;27;20312;-37
2022/03/29 10:30:39;;;;;;;45.15;24.52;;;15.20;91.10;;;;;;5135249;27;20027;-38
2022/03/29 10:33:17;;;;;;;42.25;21.27;;;16.50;86.80;;;;;;5112966;27;20031;-38
2022/03/29 10:36:02;;;;;;;39.22;25.38;;;17.10;76.80;;;;;;5112383;28;20084;-37
2022/03/29 10:38:46;;;;;;;42.72;26.27;;;16.50;75.90;;;;;;5112165;27;20031;-38
2022/03/29 10:41:29;;;;;;;34.25;21.63;;;17.20;71.30;;;;;;5113496;27;20032;-38
2022/03/29 10:44:04;;;;;;;36.13;22.52;;;18.00;71.70;;;;;;5134649;27;20027;-38
2022/03/29 10:46:47;;;;;;;40.85;22.80;;;19.70;63.50;;;;;;5130188;27;20027;-38
2022/03/29 10:49:24;;;;;;;37.67;21.73;;;19.70;61.60;;;;;;5133441;27;20019;-38
2022/03/29 10:51:53;;;;;;;33.70;23.52;;;20.10;58.20;;;;;;5112973;28;20039;-46
2022/03/29 10:54:44;;;;;;;33.90;21.67;;;19.10;59.90;;;;;;5113641;28;20080;-49
2022/03/29 10:57:28;;;;;;;31.92;21.20;;;19.40;61.30;;;;;;5126029;27;20034;-46
2022/03/29 11:00:06;;;;;;;34.28;22.83;;;20.20;57.90;;;;;;5139015;27;20027;-46
2022/03/29 11:02:32;;;;;;;31.98;20.25;;;20.60;59.10;;;;;;5134422;27;20055;-48
2022/03/29 11:05:12;;;;;;;31.52;19.83;;;21.00;55.80;;;;;;5132989;27;20026;-46
2022/03/29 11:07:52;;;;;;;30.13;20.83;;;21.10;55.90;;;;;;5117345;27;20046;-45
2022/03/29 11:10:23;;;;;;;;;;;21.10;54.50;;;;;;5129503;27;20173;-45
2022/03/29 11:12:51;;;;;;;27.92;18.77;;;21.00;55.70;;;;;;5130108;27;19998;-45
2022/03/29 11:15:32;;;;;;;28.10;18.85;;;20.60;54.30;;;;;;5131686;27;20022;-46
2022/03/29 11:17:58;;;;;;;33.75;21.58;;;20.70;55.00;;;;;;5132473;27;20024;-45
2022/03/29 11:20:35;;;;;;;34.97;22.52;;;20.20;55.30;;;;;;5125784;27;20031;-45
2022/03/29 11:23:09;;;;;;;32.90;19.92;;;20.00;57.10;;;;;;5111541;28;20035;-38
2022/03/29 11:25:43;;;;;;;30.65;20.65;;;21.60;52.80;;;;;;5113599;27;20028;-38
2022/03/29 11:28:14;;;;;;;30.75;19.98;;;22.00;53.40;;;;;;5135676;27;20023;-38
2022/03/29 11:30:40;;;;;;;30.48;20.95;;;21.90;52.00;;;;;;5136720;27;20375;-38
2022/03/29 11:33:08;;;;;;;32.83;19.90;;;20.40;53.70;;;;;;5123992;27;20050;-38
2022/03/29 11:35:37;;;;;;;31.98;20.60;;;20.00;53.70;;;;;;5138348;27;20027;-38
2022/03/29 11:38:11;;;;;;;33.55;22.00;;;19.60;55.50;;;;;;5132891;27;20411;-38
2022/03/29 11:40:37;;;;;;;29.73;21.42;;;19.10;56.70;;;;;;5112827;27;20126;-38
2022/03/29 11:43:05;;;;;;;32.53;19.80;;;19.20;56.50;;;;;;5138896;27;20023;-38
2022/03/29 11:45:39;;;;;;;31.23;20.40;;;18.80;56.80;;;;;;5131273;27;20063;-38
2022/03/29 11:48:11;;;;;;;34.10;22.83;;;19.20;55.00;;;;;;5119101;27;20319;-38
2022/03/29 11:50:52;;;;;;;29.92;19.20;;;19.00;55.40;;;;;;5141113;27;20538;-38
2022/03/29 11:53:26;;;;;;;31.65;20.65;;;19.40;57.60;;;;;;5109703;28;20391;-38
2022/03/29 11:56:01;;;;;;;35.78;20.42;;;20.00;55.60;;;;;;5109923;27;20511;-38
2022/03/29 11:58:30;;;;;;;30.42;21.85;;;20.00;55.30;;;;;;5136480;27;20027;-38
2022/03/29 12:01:16;;;;;;;34.83;20.73;;;19.40;53.00;;;;;;5128569;27;20556;-37
2022/03/29 12:03:47;;;;;;;27.80;19.15;;;19.10;58.00;;;;;;5114069;27;20480;-39
2022/03/29 12:06:16;;;;;;;33.47;19.55;;;20.00;56.60;;;;;;5110932;28;20027;-39
2022/03/29 12:08:53;;;;;;;31.30;19.85;;;20.40;53.50;;;;;;5126073;27;20118;-39
2022/03/29 12:11:21;;;;;;;26.90;18.17;;;20.00;54.00;;;;;;5128498;27;20027;-39
2022/03/29 12:13:57;;;;;;;25.95;17.85;;;20.20;52.70;;;;;;5131345;27;20027;-39
2022/03/29 12:16:25;;;;;;;31.00;20.88;;;20.10;53.50;;;;;;5131214;27;20102;-39
2022/03/29 12:18:51;;;;;;;34.80;20.25;;;20.10;52.10;;;;;;5127926;27;20023;-38
2022/03/29 12:21:21;;;;;;;30.38;18.73;;;19.70;54.40;;;;;;5122288;27;20032;-38
2022/03/29 12:23:48;;;;;;;35.03;21.00;;;19.80;56.60;;;;;;5143060;27;20019;-39
2022/03/29 12:26:17;;;;;;;30.95;21.13;;;19.90;56.20;;;;;;5145670;27;20036;-40
2022/03/29 12:28:45;;;;;;;33.10;19.95;;;20.00;56.20;;;;;;5137275;27;20023;-39
2022/03/29 12:31:13;;;;;;;33.50;20.50;;;19.80;55.80;;;;;;5121585;27;20027;-39
2022/03/29 12:33:40;;;;;;;29.33;19.90;;;19.70;55.40;;;;;;5118837;27;20049;-39
2022/03/29 12:36:08;;;;;;;29.98;18.98;;;19.50;53.00;;;;;;5118883;27;20047;-39
2022/03/29 12:38:52;;;;;;;27.60;18.98;;;18.80;56.70;;;;;;5117003;27;20111;-39
2022/03/29 12:41:34;;;;;;;33.30;19.55;;;17.40;56.70;;;;;;5116817;27;20019;-39
2022/03/29 12:44:00;;;;;;;30.95;18.88;;;17.10;60.80;;;;;;5126824;27;20023;-39
2022/03/29 12:46:26;;;;;;;31.50;19.25;;;17.60;60.50;;;;;;5123385;27;20068;-39
2022/03/29 12:48:53;;;;;;;28.95;19.02;;;17.80;56.80;;;;;;5123492;27;20109;-39
2022/03/29 12:51:31;;;;;;;31.38;18.17;;;17.60;57.90;;;;;;5127459;27;20016;-38